Time;durP1;ratioP1;P1;durP2;ratioP2;P2;SDS_P1;SDS_P2;PMS_P1;PMS_P2;Temp;Humidity;BMP_temperature;BMP_pressure;BME280_temperature;BME280_humidity;BME280_pressure;Samples;Min_cycle;Max_cycle;Signal;HPM_P1;HPM_P2
2022/07/05 00:01:05;;;;;;;3.65;1.38;;;16.70;89.90;;;;;;5048485;28;20107;-59
2022/07/05 00:03:32;;;;;;;2.92;1.42;;;16.80;90.00;;;;;;5048182;28;20087;-59
2022/07/05 00:05:59;;;;;;;3.42;1.20;;;16.70;90.10;;;;;;5048489;28;20471;-59
2022/07/05 00:08:26;;;;;;;3.35;1.40;;;16.70;90.30;;;;;;5048895;28;20136;-59
2022/07/05 00:10:52;;;;;;;4.53;1.63;;;16.70;90.40;;;;;;5046795;28;20131;-59
2022/07/05 00:13:19;;;;;;;6.95;2.22;;;16.60;90.50;;;;;;5040619;28;20140;-59
2022/07/05 00:15:46;;;;;;;3.42;1.50;;;16.50;90.80;;;;;;5048126;28;20605;-60
2022/07/05 00:18:13;;;;;;;4.82;1.55;;;16.50;91.10;;;;;;5048144;28;20131;-60
2022/07/05 00:20:39;;;;;;;3.97;1.38;;;16.40;91.10;;;;;;5048046;28;20080;-58
2022/07/05 00:23:06;;;;;;;2.83;1.20;;;16.40;91.40;;;;;;5048124;28;20041;-59
2022/07/05 00:25:33;;;;;;;4.18;0.98;;;16.40;91.50;;;;;;5048084;28;20077;-59
2022/07/05 00:28:00;;;;;;;4.43;1.38;;;16.40;91.70;;;;;;5044571;28;20124;-60
2022/07/05 00:30:26;;;;;;;2.28;1.30;;;16.30;92.10;;;;;;5037308;28;20496;-59
2022/07/05 00:32:53;;;;;;;4.78;1.40;;;16.20;92.10;;;;;;5047466;28;20127;-59
2022/07/05 00:35:20;;;;;;;5.35;1.58;;;16.20;92.40;;;;;;5048545;28;20124;-59
2022/07/05 00:37:47;;;;;;;3.20;1.25;;;16.20;92.60;;;;;;5047772;28;20087;-59
2022/07/05 00:40:13;;;;;;;3.88;1.48;;;16.20;92.80;;;;;;5046561;28;20045;-59
2022/07/05 00:42:40;;;;;;;3.22;1.30;;;16.10;93.00;;;;;;4696177;28;9999910;-59
2022/07/05 00:45:08;;;;;;;3.08;1.13;;;16.10;93.20;;;;;;5045681;28;20137;-59
2022/07/05 00:47:34;;;;;;;6.20;1.17;;;16.10;93.60;;;;;;5047823;28;20053;-58
2022/07/05 00:50:01;;;;;;;7.18;2.53;;;16.10;93.60;;;;;;5047876;28;20129;-58
2022/07/05 00:52:28;;;;;;;1.77;0.95;;;16.00;93.70;;;;;;5047823;28;20132;-59
2022/07/05 00:54:55;;;;;;;2.17;1.02;;;16.00;93.80;;;;;;5049611;28;20037;-57
2022/07/05 00:57:22;;;;;;;3.72;1.52;;;16.00;93.90;;;;;;5051763;28;20095;-57
2022/07/05 00:59:49;;;;;;;4.15;1.90;;;16.00;93.90;;;;;;5043918;28;20088;-60
2022/07/05 01:02:19;;;;;;;2.67;1.30;;;16.10;94.10;;;;;;5051581;28;20111;-60
2022/07/05 01:04:48;;;;;;;3.90;1.38;;;16.00;94.10;;;;;;5051569;28;20124;-59
2022/07/05 01:07:15;;;;;;;2.53;1.30;;;16.00;94.30;;;;;;5052863;28;20049;-60
2022/07/05 01:09:42;;;;;;;8.48;1.42;;;16.00;94.30;;;;;;5050297;28;20084;-59
2022/07/05 01:12:10;;;;;;;3.20;1.20;;;15.90;94.50;;;;;;5051248;28;20055;-59
2022/07/05 01:14:36;;;;;;;3.55;1.75;;;16.00;94.70;;;;;;5050298;28;20119;-59
2022/07/05 01:17:04;;;;;;;5.57;1.50;;;15.90;94.70;;;;;;5051827;28;20080;-59
2022/07/05 01:19:31;;;;;;;2.17;1.13;;;15.90;94.90;;;;;;5051065;28;20051;-60
2022/07/05 01:21:58;;;;;;;2.53;0.90;;;15.80;94.90;;;;;;5051501;28;20124;-59
2022/07/05 01:24:24;;;;;;;3.95;1.35;;;15.80;95.10;;;;;;5047667;28;20076;-60
2022/07/05 01:26:51;;;;;;;4.35;1.50;;;15.80;95.20;;;;;;5050328;28;20068;-59
2022/07/05 01:29:18;;;;;;;1.45;0.88;;;15.80;95.20;;;;;;5050127;28;20049;-59
2022/07/05 01:31:45;;;;;;;3.58;1.20;;;15.80;95.30;;;;;;5051072;28;20435;-61
2022/07/05 01:34:12;;;;;;;8.30;1.30;;;15.70;95.40;;;;;;5050112;28;20083;-57
2022/07/05 01:36:39;;;;;;;4.97;1.75;;;15.60;95.50;;;;;;5051199;28;20049;-58
2022/07/05 01:39:06;;;;;;;3.90;1.20;;;15.60;95.70;;;;;;5049839;28;20036;-59
2022/07/05 01:41:33;;;;;;;2.17;1.02;;;15.50;95.90;;;;;;5049352;28;20053;-59
2022/07/05 01:44:02;;;;;;;4.53;1.42;;;15.40;96.10;;;;;;5049423;28;20069;-59
2022/07/05 01:46:37;;;;;;;3.10;1.27;;;15.20;96.50;;;;;;5051183;28;20049;-59
2022/07/05 01:49:09;;;;;;;2.97;1.20;;;15.30;96.60;;;;;;5049820;28;20539;-59
2022/07/05 01:51:50;;;;;;;2.67;1.50;;;15.20;96.70;;;;;;5050851;28;20087;-58
2022/07/05 01:54:18;;;;;;;2.10;0.95;;;15.20;97.00;;;;;;5046626;28;20476;-60
2022/07/05 01:56:45;;;;;;;1.88;0.90;;;15.10;96.80;;;;;;5049771;28;20080;-60
2022/07/05 01:59:11;;;;;;;2.30;1.73;;;15.10;97.20;;;;;;5049272;28;20085;-59
2022/07/05 02:01:38;;;;;;;4.93;1.40;;;15.10;97.30;;;;;;5049516;28;20136;-58
2022/07/05 02:04:07;;;;;;;1.75;1.02;;;15.10;97.40;;;;;;5050593;28;20122;-59
2022/07/05 02:06:34;;;;;;;2.35;1.13;;;15.10;97.60;;;;;;5050271;28;20508;-59
2022/07/05 02:09:01;;;;;;;2.53;1.33;;;15.10;97.50;;;;;;5050625;28;20586;-59
2022/07/05 02:11:28;;;;;;;2.20;1.20;;;15.10;97.60;;;;;;5050513;28;20132;-58
2022/07/05 02:13:55;;;;;;;1.73;1.15;;;15.10;97.60;;;;;;5050385;28;20137;-58
2022/07/05 02:16:23;;;;;;;3.85;1.40;;;15.00;97.60;;;;;;5050127;28;20083;-60
2022/07/05 02:18:50;;;;;;;2.90;1.08;;;14.90;97.80;;;;;;5050685;28;20045;-58
2022/07/05 02:21:17;;;;;;;6.75;1.40;;;14.80;98.10;;;;;;5050125;28;20080;-58
2022/07/05 02:23:43;;;;;;;2.30;1.20;;;14.80;98.30;;;;;;5050292;28;20072;-59
2022/07/05 02:26:10;;;;;;;3.92;1.52;;;14.80;98.40;;;;;;5050369;28;20834;-60
2022/07/05 02:28:37;;;;;;;4.07;1.38;;;14.70;98.50;;;;;;5048935;28;20132;-59
2022/07/05 02:31:04;;;;;;;1.95;1.17;;;14.60;98.80;;;;;;5049158;28;20338;-59
2022/07/05 02:33:31;;;;;;;3.88;1.33;;;14.60;99.00;;;;;;5049928;28;20500;-58
2022/07/05 02:36:02;;;;;;;3.00;1.38;;;14.50;99.10;;;;;;5050283;28;20098;-60
2022/07/05 02:38:28;;;;;;;2.75;1.25;;;14.50;99.30;;;;;;5048968;28;20052;-59
2022/07/05 02:40:55;;;;;;;3.42;1.50;;;14.40;99.50;;;;;;5049977;28;20040;-59
2022/07/05 02:43:22;;;;;;;4.10;1.65;;;14.40;99.60;;;;;;5049950;28;20055;-58
2022/07/05 02:45:49;;;;;;;6.47;2.20;;;14.30;99.70;;;;;;5049923;28;20052;-60
2022/07/05 02:48:15;;;;;;;2.05;1.13;;;14.30;99.80;;;;;;5050074;28;20110;-59
2022/07/05 02:50:42;;;;;;;1.98;1.30;;;14.30;99.90;;;;;;5049839;28;20049;-58
2022/07/05 02:53:09;;;;;;;1.63;1.17;;;14.20;99.90;;;;;;5049666;28;20143;-59
2022/07/05 02:55:36;;;;;;;3.80;1.20;;;14.20;99.90;;;;;;5048488;28;20139;-58
2022/07/05 02:58:02;;;;;;;3.70;1.17;;;14.10;99.90;;;;;;5049596;28;20135;-59
2022/07/05 03:00:29;;;;;;;2.90;0.90;;;14.10;99.90;;;;;;5050005;28;20041;-59
2022/07/05 03:02:56;;;;;;;2.15;1.08;;;14.00;99.90;;;;;;5049165;28;20145;-59
2022/07/05 03:05:23;;;;;;;1.65;1.15;;;14.00;99.90;;;;;;5049857;28;20045;-59
2022/07/05 03:07:50;;;;;;;2.00;1.05;;;13.90;99.90;;;;;;5038928;28;20296;-59
2022/07/05 03:10:16;;;;;;;1.80;1.15;;;13.90;99.90;;;;;;5049184;28;20052;-58
2022/07/05 03:12:43;;;;;;;4.47;1.23;;;13.90;99.90;;;;;;5049277;28;20089;-59
2022/07/05 03:15:10;;;;;;;4.75;1.40;;;13.80;99.90;;;;;;5049453;28;20144;-59
2022/07/05 03:17:37;;;;;;;3.78;1.20;;;13.70;99.90;;;;;;5048449;28;20103;-59
2022/07/05 03:20:04;;;;;;;3.75;1.17;;;13.70;99.90;;;;;;5049286;28;20077;-59
2022/07/05 03:22:34;;;;;;;2.30;1.05;;;13.70;99.90;;;;;;5049017;28;20072;-59
2022/07/05 03:25:01;;;;;;;6.30;1.20;;;13.70;99.90;;;;;;5049172;28;20404;-58
2022/07/05 03:27:28;;;;;;;3.65;1.13;;;13.70;99.90;;;;;;5048983;28;20482;-58
2022/07/05 03:29:54;;;;;;;2.53;1.10;;;13.70;99.90;;;;;;5049026;28;20476;-58
2022/07/05 03:32:21;;;;;;;6.47;2.15;;;13.70;99.90;;;;;;5048561;28;20056;-60
2022/07/05 03:34:48;;;;;;;6.40;1.67;;;13.70;99.90;;;;;;5048787;28;20132;-59
2022/07/05 03:37:15;;;;;;;3.40;1.70;;;13.70;99.90;;;;;;5048675;28;20412;-57
2022/07/05 03:39:41;;;;;;;2.35;1.20;;;13.70;99.90;;;;;;5047359;28;20041;-59
2022/07/05 03:42:08;;;;;;;3.72;1.30;;;13.70;99.90;;;;;;5048751;28;20052;-59
2022/07/05 03:44:35;;;;;;;4.93;1.40;;;13.60;99.90;;;;;;5048621;28;20127;-59
2022/07/05 03:47:02;;;;;;;3.20;1.40;;;13.60;99.90;;;;;;5049222;28;20353;-59
2022/07/05 03:49:29;;;;;;;4.68;1.75;;;13.60;99.90;;;;;;5048512;28;20087;-59
2022/07/05 03:51:56;;;;;;;6.30;1.50;;;13.70;99.90;;;;;;5048577;28;20472;-60
2022/07/05 03:54:22;;;;;;;3.85;1.27;;;13.70;99.90;;;;;;5048228;28;20166;-59
2022/07/05 03:56:49;;;;;;;2.53;1.10;;;13.70;99.90;;;;;;5048663;28;20128;-59
2022/07/05 03:59:16;;;;;;;2.67;1.27;;;13.70;99.90;;;;;;5048256;28;20139;-59
2022/07/05 04:01:42;;;;;;;2.53;1.35;;;13.60;99.90;;;;;;5046431;28;20596;-59
2022/07/05 04:04:09;;;;;;;5.40;1.58;;;13.60;99.90;;;;;;5047601;28;20530;-58
2022/07/05 04:06:36;;;;;;;1.92;1.05;;;13.60;99.90;;;;;;5048375;28;20048;-59
2022/07/05 04:09:03;;;;;;;7.30;3.40;;;13.60;99.90;;;;;;5048101;28;20361;-59
2022/07/05 04:11:30;;;;;;;2.95;1.45;;;13.60;99.90;;;;;;5048230;28;20072;-59
2022/07/05 04:13:57;;;;;;;3.40;1.55;;;13.60;99.90;;;;;;5047628;28;20077;-59
2022/07/05 04:16:25;;;;;;;3.47;1.50;;;13.60;99.90;;;;;;5048118;28;20709;-59
2022/07/05 04:18:52;;;;;;;4.07;1.85;;;13.70;99.90;;;;;;5048243;28;20140;-59
2022/07/05 04:21:19;;;;;;;4.88;1.25;;;13.70;99.90;;;;;;5046944;28;20083;-58
2022/07/05 04:23:46;;;;;;;2.80;1.20;;;13.70;99.90;;;;;;5047821;28;20044;-58
2022/07/05 04:26:13;;;;;;;4.65;1.42;;;13.70;99.90;;;;;;5047934;28;20059;-60
2022/07/05 04:28:39;;;;;;;2.17;1.10;;;13.70;99.90;;;;;;5048173;28;20175;-59
2022/07/05 04:31:06;;;;;;;3.42;1.30;;;13.70;99.90;;;;;;5044667;28;20508;-58
2022/07/05 04:33:33;;;;;;;3.30;1.10;;;13.70;99.90;;;;;;5047925;28;20052;-59
2022/07/05 04:36:00;;;;;;;2.90;1.40;;;13.60;99.90;;;;;;5048261;28;20041;-60
2022/07/05 04:38:26;;;;;;;3.70;1.58;;;13.60;99.90;;;;;;5047843;28;20144;-60
2022/07/05 04:40:53;;;;;;;4.28;1.83;;;13.50;99.90;;;;;;5047649;28;20080;-59
2022/07/05 04:43:20;;;;;;;3.05;1.55;;;13.50;99.90;;;;;;5047736;28;20048;-59
2022/07/05 04:45:47;;;;;;;3.08;1.50;;;13.60;99.90;;;;;;5047719;28;20401;-59
2022/07/05 04:48:20;;;;;;;4.88;0.98;;;13.60;99.90;;;;;;5047678;28;20045;-59
2022/07/05 04:50:46;;;;;;;3.83;1.20;;;13.60;99.90;;;;;;5047710;28;20128;-60
2022/07/05 04:53:13;;;;;;;2.80;1.33;;;13.70;99.90;;;;;;5047537;28;20239;-60
2022/07/05 04:55:40;;;;;;;3.55;1.38;;;13.70;99.90;;;;;;5047555;28;20076;-59
2022/07/05 04:58:07;;;;;;;2.95;1.13;;;13.70;99.90;;;;;;5047609;28;20053;-59
2022/07/05 05:00:34;;;;;;;2.25;1.17;;;13.70;99.90;;;;;;5047652;28;20403;-60
2022/07/05 05:03:01;;;;;;;4.50;1.52;;;13.70;99.90;;;;;;5047514;28;20072;-59
2022/07/05 05:05:27;;;;;;;4.00;1.83;;;13.60;99.90;;;;;;5047481;28;20567;-58
2022/07/05 05:07:54;;;;;;;6.45;1.70;;;13.60;99.90;;;;;;5048083;28;20048;-59
2022/07/05 05:10:21;;;;;;;8.50;1.20;;;13.60;99.90;;;;;;5047517;28;20174;-59
2022/07/05 05:12:48;;;;;;;2.60;1.55;;;13.70;99.90;;;;;;5047351;28;20051;-60
2022/07/05 05:15:15;;;;;;;3.92;1.85;;;13.70;99.90;;;;;;5062875;28;20080;-59
2022/07/05 05:17:42;;;;;;;3.33;1.10;;;13.80;99.90;;;;;;5047398;28;20076;-60
2022/07/05 05:20:14;;;;;;;3.03;1.38;;;13.80;99.90;;;;;;5047443;28;20124;-59
2022/07/05 05:22:41;;;;;;;8.05;2.17;;;13.90;99.90;;;;;;5044738;28;20052;-59
2022/07/05 05:25:09;;;;;;;6.45;1.38;;;13.90;99.90;;;;;;5047308;28;20041;-57
2022/07/05 05:27:45;;;;;;;6.10;1.67;;;14.00;99.90;;;;;;5045921;28;20057;-60
2022/07/05 05:30:16;;;;;;;6.38;1.67;;;14.00;99.90;;;;;;5046407;28;20045;-60
2022/07/05 05:32:43;;;;;;;4.07;1.70;;;14.00;99.90;;;;;;5045871;28;20067;-59
2022/07/05 05:35:09;;;;;;;6.47;1.50;;;13.90;99.90;;;;;;5043285;28;20045;-58
2022/07/05 05:38:06;;;;;;;9.38;1.70;;;13.90;99.90;;;;;;5045898;28;20123;-60
2022/07/05 05:40:33;;;;;;;7.07;1.60;;;14.00;99.90;;;;;;5039851;28;20072;-58
2022/07/05 05:43:00;;;;;;;5.57;1.40;;;14.10;99.90;;;;;;5050959;28;20099;-59
2022/07/05 05:45:27;;;;;;;2.90;1.20;;;14.20;99.90;;;;;;5050617;28;20049;-60
2022/07/05 05:47:55;;;;;;;5.50;1.60;;;14.20;99.90;;;;;;5050828;28;20091;-57
2022/07/05 05:50:29;;;;;;;5.22;1.30;;;14.20;99.90;;;;;;5049503;28;20084;-59
2022/07/05 05:52:55;;;;;;;6.47;1.95;;;14.30;99.90;;;;;;5050364;28;20144;-59
2022/07/05 05:55:23;;;;;;;5.60;1.40;;;14.40;99.90;;;;;;5050116;28;20049;-59
2022/07/05 05:57:50;;;;;;;4.65;2.47;;;14.40;99.90;;;;;;5049977;28;20135;-59
2022/07/05 06:00:17;;;;;;;6.97;1.50;;;14.40;99.90;;;;;;5059756;28;20055;-59
2022/07/05 06:02:44;;;;;;;5.95;2.08;;;14.50;99.90;;;;;;5056941;28;20107;-59
2022/07/05 06:05:11;;;;;;;5.78;1.63;;;14.50;99.90;;;;;;5057734;28;20108;-58
2022/07/05 06:07:46;;;;;;;7.53;1.52;;;14.50;99.90;;;;;;5054988;28;20122;-59
2022/07/05 06:10:21;;;;;;;3.45;1.48;;;14.60;99.90;;;;;;5058174;28;20087;-59
2022/07/05 06:12:48;;;;;;;4.97;1.42;;;14.70;99.90;;;;;;5052625;28;20084;-61
2022/07/05 06:15:18;;;;;;;3.30;1.40;;;14.70;99.90;;;;;;5050016;28;20128;-60
2022/07/05 06:17:45;;;;;;;6.25;1.80;;;14.70;99.90;;;;;;5050051;28;20128;-59
2022/07/05 06:20:24;;;;;;;3.03;1.25;;;14.80;99.90;;;;;;5054532;28;20051;-59
2022/07/05 06:22:51;;;;;;;4.90;1.50;;;14.70;99.90;;;;;;5065379;28;20107;-59
2022/07/05 06:25:18;;;;;;;4.85;1.45;;;14.70;99.90;;;;;;5062465;28;20051;-62
2022/07/05 06:27:59;;;;;;;4.85;1.65;;;14.70;99.90;;;;;;5055941;28;20049;-58
2022/07/05 06:30:29;;;;;;;6.07;2.25;;;14.80;99.90;;;;;;5048051;28;20095;-59
2022/07/05 06:32:56;;;;;;;3.00;1.27;;;15.00;99.90;;;;;;5049717;28;20135;-59
2022/07/05 06:35:23;;;;;;;4.00;1.30;;;15.00;99.90;;;;;;5049474;28;20523;-58
2022/07/05 06:37:51;;;;;;;5.05;1.45;;;15.00;99.90;;;;;;5048693;28;20446;-59
2022/07/05 06:40:23;;;;;;;5.25;1.50;;;15.10;99.90;;;;;;5048284;28;20048;-59
2022/07/05 06:42:50;;;;;;;6.22;1.85;;;15.10;99.90;;;;;;5046738;28;20052;-59
2022/07/05 06:45:17;;;;;;;2.72;1.50;;;15.10;99.90;;;;;;5050908;28;20087;-59
2022/07/05 06:47:44;;;;;;;3.55;1.50;;;15.20;99.90;;;;;;5058594;28;20041;-59
2022/07/05 06:50:11;;;;;;;7.88;2.03;;;15.30;99.90;;;;;;5056299;28;20048;-59
2022/07/05 06:52:39;;;;;;;6.25;1.42;;;15.30;99.90;;;;;;5053450;28;20087;-60
2022/07/05 06:55:06;;;;;;;7.30;1.38;;;15.40;99.90;;;;;;5054455;28;20331;-60
2022/07/05 06:57:33;;;;;;;6.72;1.90;;;15.40;99.90;;;;;;5049728;28;20040;-60
2022/07/05 07:00:00;;;;;;;7.85;1.58;;;15.40;99.90;;;;;;5052412;28;20080;-59
2022/07/05 07:02:28;;;;;;;7.75;2.65;;;15.50;99.90;;;;;;5045082;28;20565;-58
2022/07/05 07:04:55;;;;;;;6.32;1.83;;;15.50;99.90;;;;;;5047355;28;20080;-56
2022/07/05 07:10:26;;;;;;;7.20;1.58;;;15.70;99.90;;;;;;5044975;28;20052;-61
2022/07/05 07:12:59;;;;;;;4.55;1.52;;;15.80;99.90;;;;;;5045906;28;20554;-59
2022/07/05 07:15:26;;;;;;;6.72;1.83;;;15.80;99.90;;;;;;5045637;28;20311;-59
2022/07/05 07:17:53;;;;;;;3.42;1.25;;;15.80;99.90;;;;;;5046183;28;20057;-60
2022/07/05 07:20:20;;;;;;;2.78;1.13;;;15.90;99.90;;;;;;5047408;28;20053;-60
2022/07/05 07:22:46;;;;;;;6.38;1.48;;;15.90;99.90;;;;;;5048669;28;20108;-59
2022/07/05 07:25:13;;;;;;;2.67;1.00;;;16.00;99.30;;;;;;5048510;28;20124;-58
2022/07/05 07:27:42;;;;;;;4.55;1.40;;;16.00;99.40;;;;;;5048436;28;20132;-60
2022/07/05 07:30:13;;;;;;;6.50;1.10;;;16.00;99.00;;;;;;5048251;28;20076;-59
2022/07/05 07:32:40;;;;;;;5.20;2.15;;;16.10;98.90;;;;;;5048319;28;20052;-60
2022/07/05 07:35:07;;;;;;;3.58;1.25;;;16.20;98.50;;;;;;5048222;28;20126;-59
2022/07/05 07:37:35;;;;;;;9.15;2.38;;;16.20;98.50;;;;;;5048282;28;20491;-59
2022/07/05 07:40:05;;;;;;;4.68;1.17;;;16.30;98.60;;;;;;5047880;28;20057;-60
2022/07/05 07:42:32;;;;;;;6.93;1.05;;;16.40;97.80;;;;;;5046416;28;20045;-60
2022/07/05 07:45:03;;;;;;;4.25;1.30;;;16.50;97.70;;;;;;5048231;28;20492;-59
2022/07/05 07:47:33;;;;;;;4.53;1.25;;;16.40;97.70;;;;;;5047984;28;20110;-59
2022/07/05 07:50:00;;;;;;;11.32;2.20;;;16.50;97.50;;;;;;5048315;28;20052;-59
2022/07/05 07:52:27;;;;;;;3.78;1.35;;;16.50;97.30;;;;;;5045133;28;20120;-59
2022/07/05 07:54:54;;;;;;;3.30;1.15;;;16.70;96.70;;;;;;5044946;28;20099;-59
2022/07/05 07:57:21;;;;;;;3.22;1.35;;;16.70;96.70;;;;;;5047919;28;20078;-59
2022/07/05 07:59:48;;;;;;;8.25;1.35;;;16.80;96.20;;;;;;5046842;28;20064;-59
2022/07/05 08:02:15;;;;;;;2.88;0.90;;;16.80;96.30;;;;;;5046458;28;20647;-59
2022/07/05 08:04:41;;;;;;;2.10;0.70;;;16.90;96.10;;;;;;5045448;28;20057;-60
2022/07/05 08:07:09;;;;;;;8.07;1.20;;;17.00;95.40;;;;;;5046093;28;20152;-59
2022/07/05 08:09:35;;;;;;;4.30;1.40;;;17.00;95.00;;;;;;5046016;28;20099;-59
2022/07/05 08:12:02;;;;;;;1.77;1.42;;;17.00;94.90;;;;;;5045825;28;20508;-59
2022/07/05 08:14:29;;;;;;;3.50;1.05;;;17.10;94.80;;;;;;5044820;28;20085;-60
2022/07/05 08:16:56;;;;;;;2.28;0.70;;;17.10;93.50;;;;;;5047444;28;20083;-60
2022/07/05 08:22:09;;;;;;;2.42;0.85;;;17.20;93.90;;;;;;5047427;28;20110;-59
2022/07/05 08:24:37;;;;;;;1.98;0.73;;;17.30;93.30;;;;;;5047692;28;20131;-59
2022/07/05 08:27:04;;;;;;;2.83;1.10;;;17.40;93.20;;;;;;5047591;28;20080;-60
2022/07/05 08:29:31;;;;;;;6.25;1.17;;;17.50;92.80;;;;;;5047264;28;20049;-59
2022/07/05 08:31:58;;;;;;;3.70;1.35;;;17.40;92.40;;;;;;5047467;28;20041;-58
2022/07/05 08:34:25;;;;;;;2.10;0.80;;;17.50;92.10;;;;;;5047303;28;20140;-59
2022/07/05 08:36:52;;;;;;;3.08;1.02;;;17.60;91.80;;;;;;5047325;28;20516;-59
2022/07/05 08:39:19;;;;;;;8.38;1.30;;;17.70;91.70;;;;;;5047564;28;20128;-59
2022/07/05 08:41:49;;;;;;;3.08;1.17;;;17.70;91.30;;;;;;5047698;28;20048;-59
2022/07/05 08:44:20;;;;;;;3.25;1.08;;;17.70;88.40;;;;;;5047460;28;20122;-59
2022/07/05 08:46:50;;;;;;;2.92;0.80;;;17.80;89.80;;;;;;5047734;28;20115;-61
2022/07/05 08:49:25;;;;;;;4.15;1.15;;;17.90;88.50;;;;;;5047422;28;20074;-60
2022/07/05 08:51:53;;;;;;;9.07;1.10;;;18.00;90.00;;;;;;5048378;28;20091;-60
2022/07/05 08:54:21;;;;;;;2.33;1.08;;;18.20;89.40;;;;;;5045609;28;20478;-59
2022/07/05 08:56:48;;;;;;;4.28;1.45;;;18.40;90.10;;;;;;5047603;28;20076;-59
2022/07/05 08:59:35;;;;;;;8.50;0.90;;;18.50;89.30;;;;;;5044854;28;20401;-60
2022/07/05 09:02:02;;;;;;;2.03;1.17;;;18.50;87.20;;;;;;5047798;28;20144;-58
2022/07/05 09:04:31;;;;;;;2.28;0.95;;;18.50;88.60;;;;;;5046132;28;20049;-59
2022/07/05 09:07:02;;;;;;;3.20;1.20;;;18.40;87.80;;;;;;5048137;28;20045;-59
2022/07/05 09:09:28;;;;;;;7.03;0.80;;;18.30;88.30;;;;;;5040479;28;20484;-58
2022/07/05 09:11:56;;;;;;;5.15;1.00;;;18.40;88.70;;;;;;5046031;28;20049;-58
2022/07/05 09:14:43;;;;;;;3.92;0.90;;;18.40;87.90;;;;;;5046264;28;20056;-59
2022/07/05 09:17:11;;;;;;;4.53;0.95;;;18.50;88.40;;;;;;5050963;28;20546;-58
2022/07/05 09:19:37;;;;;;;2.40;0.68;;;18.60;86.80;;;;;;5051245;28;20084;-59
2022/07/05 09:22:08;;;;;;;3.72;0.98;;;18.70;84.60;;;;;;5051048;28;20041;-58
2022/07/05 09:24:44;;;;;;;7.07;1.15;;;18.70;84.80;;;;;;5051488;28;20086;-59
2022/07/05 09:27:13;;;;;;;6.70;1.02;;;19.00;85.50;;;;;;5050864;28;20381;-59
2022/07/05 09:29:54;;;;;;;3.08;1.02;;;19.20;85.30;;;;;;5051338;28;20064;-59
2022/07/05 09:32:30;;;;;;;5.65;1.38;;;19.40;82.60;;;;;;5050728;28;20049;-59
2022/07/05 09:34:58;;;;;;;3.00;0.88;;;19.40;81.10;;;;;;5050921;28;20056;-59
2022/07/05 09:37:43;;;;;;;4.07;1.17;;;19.40;81.30;;;;;;5050911;28;20080;-57
2022/07/05 09:40:10;;;;;;;6.90;1.02;;;19.40;80.00;;;;;;5042336;28;20094;-59
2022/07/05 09:42:45;;;;;;;5.75;1.40;;;19.40;82.60;;;;;;5050880;28;20491;-58
2022/07/05 09:45:24;;;;;;;7.03;1.00;;;19.70;81.10;;;;;;5041622;28;20053;-60
2022/07/05 09:47:50;;;;;;;8.32;1.20;;;19.70;80.80;;;;;;5046756;28;20408;-59
2022/07/05 09:50:37;;;;;;;5.05;1.10;;;19.80;80.90;;;;;;5042207;28;20045;-58
2022/07/05 09:53:24;;;;;;;1.45;0.80;;;19.90;77.50;;;;;;5050287;28;20563;-59
2022/07/05 09:56:01;;;;;;;6.13;1.40;;;19.90;79.70;;;;;;5049207;28;20334;-58
2022/07/05 09:58:29;;;;;;;4.50;1.15;;;20.20;78.10;;;;;;5050482;28;20056;-59
2022/07/05 10:00:56;;;;;;;2.58;0.88;;;20.40;79.60;;;;;;5050606;28;20041;-60
2022/07/05 10:03:22;;;;;;;3.97;1.00;;;20.60;78.80;;;;;;5049291;28;20059;-59
2022/07/05 10:05:49;;;;;;;5.35;1.33;;;20.60;77.30;;;;;;5050460;28;20449;-58
2022/07/05 10:08:25;;;;;;;1.25;0.90;;;20.40;77.30;;;;;;5044438;28;20136;-59
2022/07/05 10:10:52;;;;;;;5.32;1.00;;;20.30;76.30;;;;;;5049159;28;20041;-60
2022/07/05 10:13:19;;;;;;;4.43;0.93;;;20.20;77.10;;;;;;5049207;28;20122;-59
2022/07/05 10:15:46;;;;;;;5.63;1.30;;;20.20;77.70;;;;;;5050089;28;20099;-59
2022/07/05 10:18:14;;;;;;;3.47;0.88;;;20.30;74.30;;;;;;5048778;28;20049;-60
2022/07/05 10:20:43;;;;;;;8.15;1.00;;;20.60;76.00;;;;;;5048728;28;20139;-59
2022/07/05 10:23:13;;;;;;;4.65;0.90;;;20.80;76.50;;;;;;5048865;28;20072;-59
2022/07/05 10:25:42;;;;;;;5.70;1.25;;;21.00;74.10;;;;;;5050155;28;20052;-59
2022/07/05 10:28:09;;;;;;;3.53;1.10;;;21.00;73.70;;;;;;5048244;28;20548;-59
2022/07/05 10:30:37;;;;;;;5.70;1.38;;;21.00;73.20;;;;;;5049915;28;20441;-59
2022/07/05 10:33:06;;;;;;;4.65;1.17;;;20.80;73.10;;;;;;5049673;28;20041;-59
2022/07/05 10:35:33;;;;;;;1.63;0.90;;;20.70;74.60;;;;;;5050116;28;20118;-59
2022/07/05 10:38:00;;;;;;;2.63;1.00;;;20.50;73.80;;;;;;5048860;28;20407;-59
2022/07/05 10:40:28;;;;;;;8.60;1.17;;;20.70;75.00;;;;;;5048587;28;20095;-60
2022/07/05 10:43:00;;;;;;;4.65;1.42;;;20.70;74.20;;;;;;5048490;28;20423;-59
2022/07/05 10:45:31;;;;;;;2.85;0.80;;;20.70;74.60;;;;;;5048421;28;20056;-59
2022/07/05 10:48:15;;;;;;;6.45;1.27;;;20.70;73.70;;;;;;5049489;28;20045;-59
2022/07/05 10:50:49;;;;;;;1.42;0.68;;;20.60;73.40;;;;;;5050026;28;20045;-59
2022/07/05 10:53:17;;;;;;;3.00;1.05;;;20.20;73.80;;;;;;5049551;28;20092;-59
2022/07/05 10:55:53;;;;;;;1.77;0.70;;;20.30;74.90;;;;;;5049585;28;20118;-59
2022/07/05 10:58:21;;;;;;;2.00;0.77;;;20.60;74.20;;;;;;5064031;28;20468;-59
2022/07/05 11:00:49;;;;;;;3.35;0.65;;;20.70;73.90;;;;;;5042127;28;20130;-59
2022/07/05 11:03:35;;;;;;;8.40;1.10;;;20.60;74.20;;;;;;5046842;28;20057;-59
2022/07/05 11:06:04;;;;;;;3.92;1.08;;;20.50;72.20;;;;;;5046087;28;20041;-59
2022/07/05 11:09:04;;;;;;;5.95;1.65;;;20.60;73.80;;;;;;5047271;28;20082;-59
2022/07/05 11:11:47;;;;;;;6.28;1.50;;;20.60;72.90;;;;;;5010231;28;20046;-59
2022/07/05 11:14:35;;;;;;;2.83;0.90;;;20.40;73.80;;;;;;5044426;28;20523;-59
2022/07/05 11:17:16;;;;;;;3.08;0.80;;;20.30;75.00;;;;;;5048240;28;20299;-59
2022/07/05 11:20:06;;;;;;;1.92;0.80;;;20.20;75.40;;;;;;5047331;28;20088;-58
2022/07/05 11:22:54;;;;;;;3.22;1.10;;;20.30;75.50;;;;;;5048028;28;20095;-59
2022/07/05 11:25:21;;;;;;;6.13;1.30;;;20.40;73.80;;;;;;5032175;28;20115;-58
2022/07/05 11:28:15;;;;;;;5.50;1.08;;;20.50;75.50;;;;;;5046703;28;20075;-58
2022/07/05 11:30:46;;;;;;;5.43;1.15;;;20.70;76.60;;;;;;5054395;28;20040;-59
2022/07/05 11:33:35;;;;;;;9.15;1.50;;;21.00;74.20;;;;;;5046585;28;20558;-59
2022/07/05 11:36:04;;;;;;;7.60;1.40;;;20.80;73.40;;;;;;5040308;28;20045;-59
2022/07/05 11:38:31;;;;;;;4.10;0.60;;;20.70;74.60;;;;;;5046898;28;20087;-59
2022/07/05 11:41:18;;;;;;;2.17;1.08;;;20.70;74.80;;;;;;5046671;28;20220;-60
2022/07/05 11:43:44;;;;;;;3.03;1.20;;;20.80;74.50;;;;;;5047666;28;20132;-60
2022/07/05 11:46:11;;;;;;;6.43;1.17;;;21.00;74.80;;;;;;5046212;28;20084;-59
2022/07/05 11:48:59;;;;;;;4.32;0.75;;;21.10;73.30;;;;;;5047292;28;20124;-59
2022/07/05 11:51:26;;;;;;;7.13;0.93;;;21.20;73.20;;;;;;5046078;28;20065;-59
2022/07/05 11:53:53;;;;;;;3.58;1.20;;;21.30;71.90;;;;;;5047553;28;20041;-59
2022/07/05 11:56:39;;;;;;;3.63;1.00;;;21.20;72.40;;;;;;5039657;28;20396;-59
2022/07/05 11:59:23;;;;;;;2.65;0.70;;;21.20;72.00;;;;;;5007063;28;1162759;-60
2022/07/05 12:01:50;;;;;;;3.17;0.90;;;21.30;71.30;;;;;;5048301;28;20148;-59
2022/07/05 12:04:25;;;;;;;3.20;0.93;;;21.30;71.90;;;;;;5048212;28;20067;-58
2022/07/05 12:06:53;;;;;;;6.00;1.33;;;21.50;72.90;;;;;;5048170;28;20051;-59
2022/07/05 12:09:26;;;;;;;7.30;1.65;;;21.90;71.90;;;;;;5049276;28;20084;-59
2022/07/05 12:14:47;;;;;;;2.55;0.70;;;22.00;70.90;;;;;;5047859;28;20096;-58
2022/07/05 12:17:15;;;;;;;4.00;1.10;;;22.00;68.70;;;;;;5047208;28;20076;-58
2022/07/05 12:19:51;;;;;;;3.72;1.00;;;21.90;69.90;;;;;;5047373;28;20044;-59
2022/07/05 12:22:27;;;;;;;5.10;1.48;;;21.60;70.80;;;;;;4696161;28;9999982;-58
2022/07/05 12:24:53;;;;;;;9.52;1.30;;;21.80;70.60;;;;;;5043602;28;20087;-59
2022/07/05 12:27:20;;;;;;;1.80;0.80;;;21.70;71.10;;;;;;5043141;28;20477;-58
2022/07/05 12:29:47;;;;;;;9.10;1.38;;;21.90;71.30;;;;;;5043612;28;20076;-59
2022/07/05 12:32:14;;;;;;;3.08;1.20;;;22.10;70.70;;;;;;5039958;28;21669;-57
2022/07/05 12:34:42;;;;;;;6.43;0.98;;;22.40;69.90;;;;;;5045413;28;20053;-58
2022/07/05 12:37:09;;;;;;;4.78;0.80;;;22.70;70.50;;;;;;5043374;28;20160;-59
2022/07/05 12:39:35;;;;;;;5.53;1.35;;;22.50;68.50;;;;;;5031485;28;20153;-58
2022/07/05 12:42:02;;;;;;;4.32;1.30;;;22.20;69.40;;;;;;5044950;28;20080;-59
2022/07/05 12:44:29;;;;;;;5.72;1.00;;;21.90;69.20;;;;;;5043653;28;20114;-59
2022/07/05 12:47:04;;;;;;;2.33;0.88;;;22.00;70.80;;;;;;5044674;28;20575;-59
2022/07/05 12:49:32;;;;;;;4.10;1.02;;;22.10;70.00;;;;;;5043354;28;20120;-61
2022/07/05 12:52:04;;;;;;;11.98;1.45;;;22.20;70.80;;;;;;5044387;28;20048;-59
2022/07/05 13:00:06;;;;;;;4.13;0.60;;;22.40;70.50;;;;;;5044344;28;20088;-57
2022/07/05 13:02:39;;;;;;;4.10;0.95;;;22.60;70.10;;;;;;5044209;28;20045;-59
2022/07/05 13:05:08;;;;;;;4.18;0.75;;;22.80;69.40;;;;;;5040784;28;20041;-58
2022/07/05 13:07:43;;;;;;;5.03;2.20;;;22.70;69.60;;;;;;5045715;28;20074;-59
2022/07/05 13:10:21;;;;;;;4.47;1.08;;;22.80;67.80;;;;;;5043798;28;20045;-59